Covington, VA

4:27 PM EST on March 01, 2015 (GMT -0500)
Rich Patch Rd between Bensrun Rd and blue Spring Run Rd | Change Station
CLOSE
Current Station
Personal Weather Station
Location: Covington, VA
Elevation: 1604 ft
Nearby Weather Stations

Elev 1604 ft 37.68 °N, 80.07 °W | Updated 2 minutes ago

Overcast
Overcast
41.0 °F
Feels Like 41 °F
N
0.0
Wind Variable Wind from South

Today
High -- | Low -- °F
--% Chance of Precip.
Yesterday
High -- | Low -- °F
Precip. -- in
6:52 AM 6:13 PM
Waxing Gibbous, 87% visible
Pressure 30.30 in
Visibility 2.5 miles
Clouds Overcast 2100 ft
Windchill 41 °F
Dew Point 32 °F
Humidity 69%
Rainfall 0.00 in
Snow Depth Not available.
UV 1 out of 12
Pollen 1.60 out of 12
Air Quality Not available.
Flu Activity Not available.
METAR KLWB 012115Z AUTO 00000KT 2 1/2SM -RA OVC021 02/01 A3030 RMK AO2 T00190009

More Conditions Fewer Conditions

Pressure 30.30 in
Visibility 2.5 miles
Clouds Overcast 2100 ft
Windchill 41 °F
Dew Point 32 °F
Humidity 69%
Rainfall 0.00 in
Snow Depth Not available.
UV 1 out of 12
Pollen 1.60 out of 12
Air Quality Not available.
Flu Activity Not available.
METAR KLWB 012115Z AUTO 00000KT 2 1/2SM -RA OVC021 02/01 A3030 RMK AO2 T00190009

More Conditions Fewer Conditions

10-Day Weather Forecast

Almanac

Astronomy

Mar. 01, 2015 Rise Set
Actual Time
Civil Twilight
Nautical Twilight
Astronomical Twilight
Moon
Length of Visible Light
Length of Day
Tomorrow will be .
, % of the Moon is Illuminated

Today's Extremes

State Highs State Lows

Community

WunderPhotos

Upload Photos

1,801,563 photos uploaded!

WunderBlogs® & News

Nearby

Air Quality

  Air Quality AQ Index Pollutant
Not available.

Snow Depth

Station Depth Elevation

Earthquake Activity

City Distance Mag. Time & Date
Minimum magnitude displayed is 2.5.

Coastal Water Temperatures

Place Temperature

Nearby Weather Stations